Decoded Metar for SABE (BUENOS AIRES in ARGENTINA) (IATA:AEP) | Meteo·Mobile Aviation Weather
aviador You're here:

SABE Decoded Metar

BUENOS AIRES in ARGENTINA
Report Time2019-02-22 00:00:00
UTC Time2019-02-22 00:44:48
Flight Rules vfr VFR
Wind120° at 09 kt
W.Decomp.*RWY 13: 9.0 kt HW 0.5 kt LCW
W.Rank120° ranks 18
Current wind is below 120° avg. (11.5)
Visibility9999 m
Phenomena:N/A
Clouds:N/A
Expected CloudBase > 1,200 ft AGL from Temp-Dew spread
CeilingNone
Temp28°C (ISA +13)
Dew Point25°C (84% RH)
Heat Index32.7°C
QNH1010 hPa
Density Alt2,037 ft
Elevation20 ft
Report Wrong Elevation
Raw Report
SABE 220000Z 12009KT CAVOK 28/25 Q1010 NOSIG=

Extra information for SABE:More info

Metar Taf Metar & Taf Last 4 Metars F.Rules Stats Wind Profile Meteogram Temp Stats Airport Information Weather charts Add Link Nearby VenuesMetar ALERT Operation Metar Decoded Social comments